KAL011A RKSI-KLAX
Flight info
| Callsign | KAL011A |
|---|---|
| Flight time | N/A |
| Altitude | 35000 |
| Route | EGOBA2Y EGOBA Y697 LANAT Y51 SAMON Y142 GTC Y512 ADNAP OTR7 EMRON DCT 41N160E 42N170E/N0497F370 42N180E 44N170W 46N160W 46N150W/N0481F390 43N140W 39N130W DCT DACEM DCT PAINT DCT PIRAT DCT BURGL IRNMN2 |
| Aircraft | A388/J-SADE2E3FGHIJ3J4J5M1RWXY/LB1D1 |
Departure
| Time | 2026-05-01 12:10 |
|---|---|
| Airport | Incheon International Airport (RKSI) |
Arrival
| Time | N/A |
|---|---|
| Airport | Los Angeles International Airport (KLAX) |
| Time | Latitude | Longitude | Altitude | Speed | Heading |
|---|---|---|---|---|---|
| 2026-05-01 11:13 | 37.46467 | 126.43122 | 38 ft | 0 kts | 63° |
| 2026-05-01 11:46 | 37.46460 | 126.43103 | 14 ft | 2 kts | 67° |
| 2026-05-01 11:47 | 37.46455 | 126.43084 | 14 ft | 2 kts | 73° |
| 2026-05-01 11:47 | 37.46452 | 126.43063 | 9 ft | 2 kts | 81° |
| 2026-05-01 11:47 | 37.46452 | 126.43042 | 34 ft | 2 kts | 92° |
| 2026-05-01 11:47 | 37.46455 | 126.43022 | 35 ft | 2 kts | 104° |
| 2026-05-01 11:48 | 37.46461 | 126.43003 | 35 ft | 2 kts | 118° |
| 2026-05-01 11:48 | 37.46471 | 126.42986 | 35 ft | 2 kts | 130° |
| 2026-05-01 11:48 | 37.46484 | 126.42972 | 35 ft | 2 kts | 140° |
| 2026-05-01 11:48 | 37.46496 | 126.42962 | 35 ft | 1 kts | 147° |
| 2026-05-01 11:49 | 37.46500 | 126.42959 | 35 ft | 0 kts | 148° |
| 2026-05-01 11:49 | 37.46502 | 126.42956 | 34 ft | 0 kts | 144° |
| 2026-05-01 11:52 | 37.46501 | 126.42957 | 38 ft | 1 kts | 144° |
| 2026-05-01 11:53 | 37.46489 | 126.42968 | 38 ft | 4 kts | 146° |
| 2026-05-01 11:53 | 37.46455 | 126.42993 | 38 ft | 7 kts | 154° |
| 2026-05-01 11:53 | 37.46410 | 126.43019 | 38 ft | 8 kts | 156° |
| 2026-05-01 11:53 | 37.46357 | 126.43047 | 38 ft | 9 kts | 156° |
| 2026-05-01 11:54 | 37.46299 | 126.43080 | 38 ft | 10 kts | 156° |
| 2026-05-01 11:54 | 37.46233 | 126.43115 | 38 ft | 11 kts | 156° |
| 2026-05-01 11:54 | 37.46166 | 126.43160 | 38 ft | 12 kts | 149° |
| 2026-05-01 11:54 | 37.46141 | 126.43180 | 38 ft | 0 kts | 146° |
| 2026-05-01 11:55 | 37.46131 | 126.43188 | 38 ft | 3 kts | 145° |
| 2026-05-01 11:55 | 37.46104 | 126.43212 | 38 ft | 6 kts | 144° |
| 2026-05-01 11:55 | 37.46066 | 126.43246 | 38 ft | 7 kts | 145° |
| 2026-05-01 11:55 | 37.46019 | 126.43287 | 38 ft | 9 kts | 144° |
| 2026-05-01 11:56 | 37.45970 | 126.43331 | 38 ft | 2 kts | 144° |
| 2026-05-01 11:56 | 37.45950 | 126.43349 | 38 ft | 3 kts | 136° |
| 2026-05-01 11:56 | 37.45939 | 126.43381 | 38 ft | 8 kts | 95° |
| 2026-05-01 11:56 | 37.45951 | 126.43445 | 38 ft | 11 kts | 51° |
| 2026-05-01 11:57 | 37.46018 | 126.43558 | 38 ft | 13 kts | 54° |
| 2026-05-01 11:57 | 37.46055 | 126.43623 | 38 ft | 15 kts | 54° |
| 2026-05-01 11:57 | 37.46118 | 126.43734 | 38 ft | 16 kts | 54° |
| 2026-05-01 11:57 | 37.46188 | 126.43858 | 38 ft | 18 kts | 54° |
| 2026-05-01 11:58 | 37.46218 | 126.43911 | 38 ft | 7 kts | 54° |
| 2026-05-01 11:58 | 37.46251 | 126.43969 | 38 ft | 9 kts | 54° |
| 2026-05-01 11:58 | 37.46339 | 126.44127 | 38 ft | 13 kts | 54° |
| 2026-05-01 11:59 | 37.46396 | 126.44226 | 38 ft | 15 kts | 53° |
| 2026-05-01 11:59 | 37.46459 | 126.44339 | 38 ft | 17 kts | 54° |
| 2026-05-01 11:59 | 37.46529 | 126.44465 | 38 ft | 18 kts | 59° |
| 2026-05-01 12:00 | 37.46568 | 126.44636 | 38 ft | 7 kts | 127° |
| 2026-05-01 12:00 | 37.46529 | 126.44687 | 38 ft | 9 kts | 142° |
| 2026-05-01 12:00 | 37.46303 | 126.44884 | 37 ft | 27 kts | 143° |
| 2026-05-01 12:01 | 37.46155 | 126.45017 | 36 ft | 15 kts | 145° |
| 2026-05-01 12:01 | 37.46069 | 126.45093 | 37 ft | 16 kts | 145° |
| 2026-05-01 12:01 | 37.45978 | 126.45174 | 37 ft | 16 kts | 145° |
| 2026-05-01 12:01 | 37.45882 | 126.45258 | 37 ft | 17 kts | 145° |
| 2026-05-01 12:02 | 37.45782 | 126.45347 | 37 ft | 18 kts | 144° |
| 2026-05-01 12:02 | 37.45687 | 126.45432 | 37 ft | 10 kts | 144° |
| 2026-05-01 12:02 | 37.45628 | 126.45485 | 37 ft | 11 kts | 144° |
| 2026-05-01 12:02 | 37.45561 | 126.45544 | 37 ft | 12 kts | 144° |
| 2026-05-01 12:03 | 37.45488 | 126.45610 | 36 ft | 14 kts | 144° |
| 2026-05-01 12:03 | 37.45408 | 126.45681 | 37 ft | 15 kts | 144° |
| 2026-05-01 12:03 | 37.45322 | 126.45758 | 37 ft | 15 kts | 143° |
| 2026-05-01 12:03 | 37.45298 | 126.45827 | 37 ft | 7 kts | 79° |
| 2026-05-01 12:04 | 37.45324 | 126.45889 | 37 ft | 9 kts | 55° |
| 2026-05-01 12:04 | 37.45356 | 126.45946 | 37 ft | 0 kts | 55° |
| 2026-05-01 12:06 | 37.45381 | 126.45991 | 37 ft | 13 kts | 55° |
| 2026-05-01 12:06 | 37.45446 | 126.46047 | 37 ft | 16 kts | 356° |
| 2026-05-01 12:06 | 37.45499 | 126.46017 | 37 ft | 11 kts | 322° |
| 2026-05-01 12:07 | 37.45502 | 126.46015 | 37 ft | 0 kts | 323° |
| 2026-05-01 12:09 | 37.45552 | 126.45968 | 37 ft | 35 kts | 324° |
| 2026-05-01 12:09 | 37.45958 | 126.45610 | 37 ft | 104 kts | 324° |
| 2026-05-01 12:09 | 37.46701 | 126.44949 | 38 ft | 153 kts | 325° |
| 2026-05-01 12:10 | 37.47650 | 126.44117 | 178 ft | 170 kts | 322° |
| 2026-05-01 12:10 | 37.49510 | 126.42498 | 1115 ft | 174 kts | 322° |
| 2026-05-01 12:10 | 37.50553 | 126.41662 | 1422 ft | 182 kts | 325° |
| 2026-05-01 12:11 | 37.52739 | 126.39939 | 1904 ft | 195 kts | 323° |
| 2026-05-01 12:11 | 37.53934 | 126.38949 | 2065 ft | 216 kts | 324° |
| 2026-05-01 12:11 | 37.55214 | 126.37897 | 2585 ft | 222 kts | 326° |
| 2026-05-01 12:12 | 37.56641 | 126.37044 | 3076 ft | 233 kts | 338° |
| 2026-05-01 12:12 | 37.56830 | 126.36965 | 3150 ft | 233 kts | 340° |
| 2026-05-01 12:12 | 37.58372 | 126.36431 | 3514 ft | 229 kts | 341° |
| 2026-05-01 12:12 | 37.59916 | 126.35872 | 3571 ft | 236 kts | 341° |
| 2026-05-01 12:13 | 37.61530 | 126.35325 | 4083 ft | 241 kts | 348° |
| 2026-05-01 12:13 | 37.63190 | 126.35491 | 4805 ft | 246 kts | 19° |
| 2026-05-01 12:13 | 37.64649 | 126.36754 | 5076 ft | 272 kts | 48° |
| 2026-05-01 12:13 | 37.65579 | 126.38915 | 5342 ft | 285 kts | 64° |
| 2026-05-01 12:14 | 37.66244 | 126.41246 | 5496 ft | 287 kts | 69° |
| 2026-05-01 12:14 | 37.66781 | 126.43710 | 5484 ft | 291 kts | 81° |
| 2026-05-01 12:14 | 37.66634 | 126.46225 | 5683 ft | 296 kts | 105° |
| 2026-05-01 12:14 | 37.65881 | 126.48667 | 6246 ft | 300 kts | 110° |
| 2026-05-01 12:15 | 37.65131 | 126.51127 | 6897 ft | 301 kts | 112° |
| 2026-05-01 12:15 | 37.64039 | 126.53387 | 7456 ft | 305 kts | 125° |
| 2026-05-01 12:15 | 37.62778 | 126.55564 | 8101 ft | 308 kts | 126° |
| 2026-05-01 12:15 | 37.61501 | 126.57748 | 8723 ft | 311 kts | 126° |
| 2026-05-01 12:16 | 37.60217 | 126.59961 | 9318 ft | 315 kts | 126° |
| 2026-05-01 12:16 | 37.58924 | 126.62207 | 9916 ft | 318 kts | 125° |
| 2026-05-01 12:16 | 37.57618 | 126.64489 | 10315 ft | 328 kts | 125° |
| 2026-05-01 12:16 | 37.56248 | 126.66886 | 10486 ft | 345 kts | 125° |
| 2026-05-01 12:17 | 37.54814 | 126.69397 | 10628 ft | 361 kts | 125° |
| 2026-05-01 12:17 | 37.53320 | 126.72008 | 10937 ft | 371 kts | 125° |
| 2026-05-01 12:17 | 37.51808 | 126.74646 | 11446 ft | 374 kts | 125° |
| 2026-05-01 12:17 | 37.50279 | 126.77313 | 11968 ft | 377 kts | 125° |
| 2026-05-01 12:18 | 37.48738 | 126.79999 | 12490 ft | 380 kts | 125° |
| 2026-05-01 12:18 | 37.47188 | 126.82710 | 12987 ft | 383 kts | 124° |
| 2026-05-01 12:18 | 37.45615 | 126.85429 | 13469 ft | 386 kts | 125° |
| 2026-05-01 12:18 | 37.44032 | 126.88178 | 14004 ft | 388 kts | 124° |
| 2026-05-01 12:19 | 37.42530 | 126.91011 | 14393 ft | 391 kts | 114° |
| 2026-05-01 12:19 | 37.41703 | 126.94241 | 14849 ft | 388 kts | 94° |
| 2026-05-01 12:19 | 37.41725 | 126.97599 | 15276 ft | 383 kts | 76° |
| 2026-05-01 12:19 | 37.42305 | 127.00856 | 15712 ft | 382 kts | 70° |
| 2026-05-01 12:20 | 37.43004 | 127.04089 | 16158 ft | 385 kts | 70° |
| 2026-05-01 12:20 | 37.43672 | 127.07364 | 16597 ft | 389 kts | 71° |
| 2026-05-01 12:20 | 37.44289 | 127.10704 | 17012 ft | 393 kts | 72° |
| 2026-05-01 12:20 | 37.44868 | 127.14079 | 17469 ft | 395 kts | 73° |
| 2026-05-01 12:21 | 37.45422 | 127.17431 | 17887 ft | 399 kts | 73° |
| 2026-05-01 12:21 | 37.45988 | 127.20913 | 18304 ft | 401 kts | 73° |
| 2026-05-01 12:21 | 37.46540 | 127.24320 | 18622 ft | 405 kts | 73° |
| 2026-05-01 12:21 | 37.47106 | 127.27807 | 18974 ft | 408 kts | 73° |
| 2026-05-01 12:22 | 37.47675 | 127.31315 | 19281 ft | 411 kts | 73° |
| 2026-05-01 12:22 | 37.48247 | 127.34849 | 19667 ft | 413 kts | 72° |
| 2026-05-01 12:22 | 37.48819 | 127.38395 | 19974 ft | 416 kts | 72° |
| 2026-05-01 12:22 | 37.49398 | 127.41978 | 20305 ft | 418 kts | 72° |
| 2026-05-01 12:23 | 37.49977 | 127.45574 | 20649 ft | 421 kts | 72° |
| 2026-05-01 12:23 | 37.50561 | 127.49206 | 20954 ft | 424 kts | 72° |
| 2026-05-01 12:23 | 37.51147 | 127.52858 | 21295 ft | 427 kts | 72° |
| 2026-05-01 12:23 | 37.51735 | 127.56533 | 21566 ft | 431 kts | 72° |
| 2026-05-01 12:24 | 37.52327 | 127.60240 | 21916 ft | 432 kts | 72° |
| 2026-05-01 12:24 | 37.52918 | 127.63959 | 22228 ft | 435 kts | 72° |
| 2026-05-01 12:24 | 37.53514 | 127.67708 | 22563 ft | 437 kts | 72° |
| 2026-05-01 12:24 | 37.54113 | 127.71479 | 22846 ft | 441 kts | 72° |
| 2026-05-01 12:25 | 37.54712 | 127.75263 | 23177 ft | 443 kts | 72° |
| 2026-05-01 12:25 | 37.55923 | 127.82925 | 23741 ft | 448 kts | 71° |
| 2026-05-01 12:25 | 37.56532 | 127.86790 | 23991 ft | 451 kts | 71° |
| 2026-05-01 12:26 | 37.57143 | 127.90677 | 24247 ft | 454 kts | 71° |
| 2026-05-01 12:26 | 37.58373 | 127.98531 | 24781 ft | 459 kts | 71° |
| 2026-05-01 12:26 | 37.58989 | 128.02489 | 24995 ft | 463 kts | 71° |
| 2026-05-01 12:27 | 37.59613 | 128.06492 | 25217 ft | 466 kts | 71° |
| 2026-05-01 12:27 | 37.60863 | 128.14553 | 25807 ft | 472 kts | 71° |
| 2026-05-01 12:28 | 37.62127 | 128.22741 | 26373 ft | 479 kts | 70° |
| 2026-05-01 12:28 | 37.62765 | 128.26877 | 26586 ft | 483 kts | 71° |
| 2026-05-01 12:28 | 37.64046 | 128.35233 | 27258 ft | 488 kts | 70° |
| 2026-05-01 12:29 | 37.64689 | 128.39459 | 27551 ft | 491 kts | 70° |
| 2026-05-01 12:29 | 37.65336 | 128.43709 | 27829 ft | 495 kts | 70° |
| 2026-05-01 12:29 | 37.66638 | 128.52301 | 28417 ft | 502 kts | 70° |
| 2026-05-01 12:30 | 37.67951 | 128.61004 | 29017 ft | 509 kts | 70° |
| 2026-05-01 12:30 | 37.68611 | 128.65417 | 29254 ft | 513 kts | 70° |
| 2026-05-01 12:30 | 37.69233 | 128.69870 | 29544 ft | 521 kts | 75° |
| 2026-05-01 12:31 | 37.69354 | 128.74506 | 29821 ft | 538 kts | 86° |
| 2026-05-01 12:31 | 37.68808 | 128.79233 | 30082 ft | 551 kts | 99° |
| 2026-05-01 12:31 | 37.67621 | 128.83815 | 30285 ft | 562 kts | 110° |
| 2026-05-01 12:31 | 37.65782 | 128.88200 | 30537 ft | 568 kts | 123° |
| 2026-05-01 12:32 | 37.63408 | 128.92180 | 30792 ft | 570 kts | 130° |
| 2026-05-01 12:32 | 37.58515 | 129.00114 | 31292 ft | 575 kts | 124° |
| 2026-05-01 12:32 | 37.56283 | 129.04309 | 31554 ft | 578 kts | 122° |
| 2026-05-01 12:33 | 37.54137 | 129.08604 | 31826 ft | 580 kts | 121° |
| 2026-05-01 12:33 | 37.52024 | 129.12954 | 32087 ft | 582 kts | 121° |
| 2026-05-01 12:33 | 37.49925 | 129.17313 | 32372 ft | 584 kts | 121° |
| 2026-05-01 12:33 | 37.47812 | 129.21699 | 32626 ft | 587 kts | 121° |
| 2026-05-01 12:34 | 37.45687 | 129.26099 | 32841 ft | 590 kts | 121° |
| 2026-05-01 12:34 | 37.43552 | 129.30509 | 32813 ft | 590 kts | 121° |
| 2026-05-01 12:34 | 37.39285 | 129.39303 | 32817 ft | 588 kts | 121° |
| 2026-05-01 12:35 | 37.35021 | 129.48069 | 32820 ft | 588 kts | 121° |
| 2026-05-01 12:35 | 37.30742 | 129.56840 | 32826 ft | 588 kts | 121° |
| 2026-05-01 12:36 | 37.26460 | 129.65594 | 32829 ft | 589 kts | 121° |
| 2026-05-01 12:36 | 37.22165 | 129.74352 | 32829 ft | 589 kts | 121° |
| 2026-05-01 12:37 | 37.17859 | 129.83109 | 32840 ft | 590 kts | 121° |
| 2026-05-01 12:37 | 37.13545 | 129.91857 | 32840 ft | 590 kts | 121° |
| 2026-05-01 12:38 | 37.09258 | 130.00530 | 32842 ft | 590 kts | 121° |
| 2026-05-01 12:38 | 37.04903 | 130.09318 | 32844 ft | 590 kts | 121° |
| 2026-05-01 12:39 | 37.00570 | 130.18038 | 32847 ft | 590 kts | 121° |
| 2026-05-01 12:39 | 36.96256 | 130.26696 | 32846 ft | 591 kts | 121° |
| 2026-05-01 12:40 | 36.91904 | 130.35407 | 32848 ft | 591 kts | 121° |
| 2026-05-01 12:40 | 36.87548 | 130.44105 | 32853 ft | 591 kts | 121° |
| 2026-05-01 12:41 | 36.83179 | 130.52806 | 32853 ft | 592 kts | 121° |
| 2026-05-01 12:41 | 36.78802 | 130.61501 | 32851 ft | 592 kts | 121° |
| 2026-05-01 12:42 | 36.74416 | 130.70191 | 32851 ft | 592 kts | 121° |
| 2026-05-01 12:42 | 36.70020 | 130.78880 | 32852 ft | 593 kts | 121° |
| 2026-05-01 12:43 | 36.65607 | 130.87582 | 32856 ft | 593 kts | 121° |
| 2026-05-01 12:43 | 36.61199 | 130.96252 | 32852 ft | 593 kts | 121° |
| 2026-05-01 12:44 | 36.56779 | 131.04920 | 32859 ft | 593 kts | 121° |
| 2026-05-01 12:45 | 36.47913 | 131.22245 | 32855 ft | 594 kts | 121° |
| 2026-05-01 12:45 | 36.43500 | 131.30837 | 32856 ft | 594 kts | 121° |
| 2026-05-01 12:46 | 36.39149 | 131.39548 | 32856 ft | 592 kts | 113° |
| 2026-05-01 12:46 | 36.37581 | 131.44239 | 32859 ft | 586 kts | 102° |
| 2026-05-01 12:46 | 36.36666 | 131.49121 | 32854 ft | 576 kts | 90° |
| 2026-05-01 12:47 | 36.36403 | 131.54018 | 32859 ft | 564 kts | 81° |
| 2026-05-01 12:47 | 36.36456 | 131.58866 | 32856 ft | 562 kts | 80° |
| 2026-05-01 12:47 | 36.36473 | 131.68574 | 32853 ft | 564 kts | 83° |
| 2026-05-01 12:48 | 36.36232 | 131.78317 | 32854 ft | 565 kts | 84° |
| 2026-05-01 12:48 | 36.35911 | 131.88061 | 32853 ft | 565 kts | 84° |
| 2026-05-01 12:49 | 36.35579 | 131.97787 | 32853 ft | 564 kts | 84° |
| 2026-05-01 12:49 | 36.35300 | 132.05861 | 32855 ft | 563 kts | 84° |
| 2026-05-01 12:50 | 36.34959 | 132.15561 | 32854 ft | 562 kts | 84° |
| 2026-05-01 12:50 | 36.34611 | 132.25235 | 32861 ft | 561 kts | 85° |
| 2026-05-01 12:51 | 36.34255 | 132.34890 | 32851 ft | 560 kts | 85° |
| 2026-05-01 12:52 | 36.33710 | 132.49320 | 32851 ft | 557 kts | 85° |
| 2026-05-01 12:52 | 36.33150 | 132.63685 | 32846 ft | 555 kts | 86° |
| 2026-05-01 12:53 | 36.32575 | 132.77978 | 32845 ft | 552 kts | 86° |
| 2026-05-01 12:54 | 36.32184 | 132.87478 | 32845 ft | 551 kts | 86° |
| 2026-05-01 12:54 | 36.31585 | 133.01682 | 32840 ft | 549 kts | 87° |
| 2026-05-01 12:55 | 36.30975 | 133.15763 | 32833 ft | 547 kts | 87° |
| 2026-05-01 12:56 | 36.30556 | 133.25166 | 32825 ft | 546 kts | 88° |
| 2026-05-01 12:56 | 36.30129 | 133.34622 | 32827 ft | 545 kts | 88° |
| 2026-05-01 12:57 | 36.29704 | 133.43921 | 32821 ft | 544 kts | 88° |
| 2026-05-01 12:57 | 36.29045 | 133.57949 | 32810 ft | 542 kts | 88° |
| 2026-05-01 12:58 | 36.28599 | 133.67270 | 32815 ft | 541 kts | 88° |
| 2026-05-01 12:59 | 36.27920 | 133.81218 | 32803 ft | 539 kts | 89° |
| 2026-05-01 12:59 | 36.27221 | 133.95108 | 32796 ft | 539 kts | 89° |
| 2026-05-01 13:00 | 36.26508 | 134.08997 | 32789 ft | 538 kts | 89° |
| 2026-05-01 13:01 | 36.25782 | 134.22853 | 32789 ft | 537 kts | 89° |
| 2026-05-01 13:02 | 36.25039 | 134.36697 | 32771 ft | 536 kts | 89° |
| 2026-05-01 13:07 | 36.52321 | 135.21174 | 32707 ft | 501 kts | 57° |
| 2026-05-01 13:07 | 36.53843 | 135.25067 | 32707 ft | 500 kts | 58° |
| 2026-05-01 13:08 | 36.56872 | 135.32831 | 32700 ft | 498 kts | 58° |
| 2026-05-01 13:08 | 36.59891 | 135.40585 | 32691 ft | 497 kts | 58° |
| 2026-05-01 13:09 | 36.62894 | 135.48319 | 32682 ft | 495 kts | 58° |
| 2026-05-01 13:09 | 36.65887 | 135.56044 | 32678 ft | 495 kts | 58° |
| 2026-05-01 13:10 | 36.68864 | 135.63748 | 32670 ft | 494 kts | 58° |
| 2026-05-01 13:10 | 36.71838 | 135.71460 | 32661 ft | 493 kts | 58° |
| 2026-05-01 13:11 | 36.74780 | 135.79111 | 32656 ft | 492 kts | 58° |
| 2026-05-01 13:11 | 36.77734 | 135.86810 | 32650 ft | 492 kts | 59° |
| 2026-05-01 13:12 | 36.80686 | 135.94524 | 32642 ft | 493 kts | 59° |
| 2026-05-01 13:12 | 36.83641 | 136.02262 | 32634 ft | 494 kts | 59° |
| 2026-05-01 13:13 | 36.86590 | 136.10006 | 32627 ft | 494 kts | 59° |
| 2026-05-01 13:13 | 36.89536 | 136.17763 | 32629 ft | 494 kts | 59° |
| 2026-05-01 13:14 | 36.92478 | 136.25529 | 32612 ft | 494 kts | 60° |
| 2026-05-01 13:14 | 36.95411 | 136.33287 | 32611 ft | 494 kts | 60° |
| 2026-05-01 13:15 | 36.98345 | 136.41069 | 32605 ft | 494 kts | 60° |
| 2026-05-01 13:15 | 37.01272 | 136.48852 | 32599 ft | 494 kts | 60° |
| 2026-05-01 13:16 | 37.04194 | 136.56643 | 32601 ft | 495 kts | 60° |
| 2026-05-01 13:16 | 37.07111 | 136.64437 | 32591 ft | 494 kts | 61° |
| 2026-05-01 13:17 | 37.12937 | 136.80061 | 32574 ft | 495 kts | 62° |
| 2026-05-01 13:18 | 37.17280 | 136.91760 | 32559 ft | 495 kts | 62° |
| 2026-05-01 13:18 | 37.20182 | 136.99602 | 32556 ft | 496 kts | 62° |
| 2026-05-01 13:19 | 37.23079 | 137.07449 | 32556 ft | 496 kts | 62° |
| 2026-05-01 13:20 | 37.27424 | 137.19257 | 32559 ft | 497 kts | 63° |
| 2026-05-01 13:20 | 37.30320 | 137.27153 | 32556 ft | 498 kts | 63° |
| 2026-05-01 13:21 | 37.34673 | 137.39058 | 32793 ft | 504 kts | 63° |
| 2026-05-01 13:21 | 37.36133 | 137.43060 | 32994 ft | 507 kts | 63° |